Time;durP1;ratioP1;P1;durP2;ratioP2;P2;SDS_P1;SDS_P2;PMS_P1;PMS_P2;Temp;Humidity;BMP_temperature;BMP_pressure;BME280_temperature;BME280_humidity;BME280_pressure;Samples;Min_cycle;Max_cycle;Signal;HPM_P1;HPM_P2
2024/01/26 00:02:16;;;;;;;13.30;9.87;;;11.40;5.00;;;;;;6157181;23;20250;-84
2024/01/26 00:04:41;;;;;;;17.00;10.67;;;11.40;6.60;;;;;;6156710;23;20245;-84
2024/01/26 00:07:08;;;;;;;13.40;10.23;;;11.40;4.70;;;;;;6157679;23;20225;-84
2024/01/26 00:09:34;;;;;;;15.37;10.67;;;11.40;2.10;;;;;;6157763;23;20167;-83
2024/01/26 00:11:59;;;;;;;15.40;9.67;;;11.40;5.20;;;;;;6156310;23;20387;-84
2024/01/26 00:14:25;;;;;;;13.50;9.17;;;11.40;3.50;;;;;;6156285;23;20210;-84
2024/01/26 00:16:50;;;;;;;14.10;9.33;;;11.50;1.00;;;;;;6158266;23;20144;-84
2024/01/26 00:19:16;;;;;;;14.77;10.80;;;11.40;1.00;;;;;;6158991;23;20155;-84
2024/01/26 00:21:41;;;;;;;14.33;8.60;;;11.40;1.00;;;;;;6158434;23;20156;-85
2024/01/26 00:24:07;;;;;;;13.53;9.70;;;11.40;1.00;;;;;;6156762;23;20631;-84
2024/01/26 00:26:32;;;;;;;14.13;9.87;;;11.40;1.00;;;;;;6158166;23;20155;-84
2024/01/26 00:28:58;;;;;;;15.70;9.50;;;11.50;1.00;;;;;;6158610;23;20170;-85
2024/01/26 00:31:23;;;;;;;12.00;9.00;;;11.50;1.00;;;;;;6158304;23;20159;-84
2024/01/26 00:33:49;;;;;;;12.03;9.10;;;11.50;1.00;;;;;;6158071;23;20168;-84
2024/01/26 00:36:15;;;;;;;15.90;10.33;;;11.50;1.00;;;;;;6158826;23;20495;-85
2024/01/26 00:38:41;;;;;;;12.43;9.10;;;11.50;1.00;;;;;;6157524;23;20166;-84
2024/01/26 00:41:07;;;;;;;11.00;8.10;;;11.50;1.00;;;;;;6158178;23;20163;-85
2024/01/26 00:43:32;;;;;;;12.40;9.13;;;11.50;1.00;;;;;;6161183;23;20483;-85
2024/01/26 00:45:58;;;;;;;15.17;9.70;;;11.50;1.00;;;;;;6160598;23;20398;-84
2024/01/26 00:48:24;;;;;;;14.23;8.93;;;11.50;1.00;;;;;;6164261;23;20206;-84
2024/01/26 00:50:50;;;;;;;14.67;10.07;;;11.50;1.00;;;;;;6163026;23;20148;-85
2024/01/26 00:53:19;;;;;;;11.47;9.60;;;11.50;1.00;;;;;;6164205;23;20234;-86
2024/01/26 00:55:45;;;;;;;12.13;9.37;;;11.50;1.00;;;;;;6164743;23;20375;-84
2024/01/26 00:58:10;;;;;;;13.60;9.00;;;11.50;2.50;;;;;;6160789;23;20375;-85
2024/01/26 01:00:36;;;;;;;12.80;10.17;;;11.50;3.10;;;;;;6163500;23;20826;-85
2024/01/26 01:03:02;;;;;;;19.50;9.70;;;11.50;5.30;;;;;;6161692;23;20479;-84
2024/01/26 01:05:27;;;;;;;14.60;10.73;;;11.50;6.50;;;;;;6161993;23;20180;-84
2024/01/26 01:07:53;;;;;;;11.40;8.37;;;11.50;5.90;;;;;;6161959;23;20395;-85
2024/01/26 01:10:19;;;;;;;10.10;8.63;;;11.50;8.00;;;;;;6164847;23;20182;-85
2024/01/26 01:12:44;;;;;;;14.33;9.90;;;11.50;9.80;;;;;;6165383;23;20156;-84
2024/01/26 01:15:13;;;;;;;10.53;8.67;;;11.50;12.30;;;;;;6160475;23;20517;-84
2024/01/26 01:17:41;;;;;;;16.10;10.40;;;11.50;15.60;;;;;;6164017;23;20159;-85
2024/01/26 01:20:10;;;;;;;15.27;10.30;;;11.50;18.00;;;;;;6163759;23;20390;-84
2024/01/26 01:22:37;;;;;;;15.40;10.30;;;11.50;18.70;;;;;;6163740;23;20467;-85
2024/01/26 01:25:04;;;;;;;13.50;10.20;;;11.40;21.10;;;;;;6163338;23;20415;-84
2024/01/26 01:27:31;;;;;;;14.73;9.90;;;11.40;23.60;;;;;;6163505;23;20429;-85
2024/01/26 01:29:58;;;;;;;13.83;10.47;;;11.40;26.30;;;;;;6161950;23;20434;-85
2024/01/26 01:32:24;;;;;;;13.03;9.87;;;11.40;25.50;;;;;;6160132;23;20386;-84
2024/01/26 01:34:49;;;;;;;11.63;9.60;;;11.40;27.10;;;;;;6162149;23;20419;-85
2024/01/26 01:37:15;;;;;;;16.23;10.57;;;11.40;29.50;;;;;;6161481;23;20148;-85
2024/01/26 01:39:40;;;;;;;14.20;10.10;;;11.40;28.50;;;;;;6160305;23;20510;-84
2024/01/26 01:42:13;;;;;;;17.57;10.30;;;11.40;30.40;;;;;;6161493;23;20162;-83
2024/01/26 01:44:45;;;;;;;15.57;11.60;;;11.40;31.90;;;;;;6163750;23;20172;-84
2024/01/26 01:47:13;;;;;;;16.10;10.33;;;11.40;31.60;;;;;;6161867;23;20364;-84
2024/01/26 01:49:40;;;;;;;13.53;9.70;;;11.40;37.00;;;;;;6163462;23;20423;-86
2024/01/26 01:52:09;;;;;;;17.07;10.57;;;11.40;35.40;;;;;;6164081;23;20545;-85
2024/01/26 01:54:37;;;;;;;15.83;10.27;;;11.40;37.80;;;;;;6163229;23;20403;-85
2024/01/26 01:57:03;;;;;;;16.53;10.13;;;11.40;37.50;;;;;;6161613;23;20387;-85
2024/01/26 01:59:29;;;;;;;12.60;9.43;;;11.40;36.80;;;;;;6163035;23;20398;-85
2024/01/26 02:01:55;;;;;;;14.77;10.13;;;11.30;36.10;;;;;;6162610;23;20736;-84
2024/01/26 02:04:20;;;;;;;14.60;11.03;;;11.40;36.60;;;;;;6166231;23;20482;-85
2024/01/26 02:06:58;;;;;;;16.30;10.57;;;11.40;34.00;;;;;;6163139;23;20210;-84
2024/01/26 02:09:25;;;;;;;14.87;11.40;;;11.40;35.10;;;;;;6158465;23;20172;-85
2024/01/26 02:11:51;;;;;;;12.30;9.53;;;11.40;34.70;;;;;;6158190;23;20378;-84
2024/01/26 02:14:16;;;;;;;14.10;10.77;;;11.40;33.60;;;;;;6156919;23;20441;-84
2024/01/26 02:16:56;;;;;;;12.47;9.90;;;11.30;34.60;;;;;;6156725;23;20378;-84
2024/01/26 02:19:23;;;;;;;12.87;10.37;;;11.30;34.10;;;;;;6158224;23;20151;-84
2024/01/26 02:21:48;;;;;;;16.93;10.60;;;11.30;33.90;;;;;;6157916;23;20706;-84
2024/01/26 02:24:14;;;;;;;11.30;8.80;;;11.30;31.90;;;;;;6156759;23;20414;-84
2024/01/26 02:26:40;;;;;;;13.03;8.77;;;11.30;28.80;;;;;;6155930;23;20163;-84
2024/01/26 02:29:05;;;;;;;13.70;9.53;;;11.30;26.80;;;;;;6158634;23;20167;-83
2024/01/26 02:31:31;;;;;;;9.63;8.00;;;11.30;23.10;;;;;;6157915;23;20719;-84
2024/01/26 02:33:56;;;;;;;12.80;8.07;;;11.30;20.80;;;;;;6157950;23;20533;-84
2024/01/26 02:36:22;;;;;;;12.83;9.07;;;11.30;17.10;;;;;;6157594;23;20163;-84
2024/01/26 02:38:47;;;;;;;8.47;7.40;;;11.30;15.10;;;;;;6155874;23;20258;-82
2024/01/26 02:41:13;;;;;;;19.50;8.30;;;11.40;10.50;;;;;;6157753;23;20158;-83
2024/01/26 02:43:39;;;;;;;9.87;7.57;;;11.40;6.50;;;;;;6154676;23;20176;-84
2024/01/26 02:46:10;;;;;;;9.50;7.37;;;11.40;2.50;;;;;;6158133;23;20182;-84
2024/01/26 02:48:36;;;;;;;8.30;6.50;;;11.40;1.00;;;;;;6155325;23;20243;-84
2024/01/26 02:51:02;;;;;;;8.17;6.37;;;11.40;1.00;;;;;;6157547;23;20724;-84
2024/01/26 02:53:27;;;;;;;10.20;7.50;;;11.40;1.00;;;;;;6158346;23;20494;-84
2024/01/26 02:55:53;;;;;;;9.17;7.67;;;11.40;1.00;;;;;;6156572;23;20163;-84
2024/01/26 02:58:19;;;;;;;6.93;5.70;;;11.40;1.00;;;;;;6156657;23;20159;-82
2024/01/26 03:00:44;;;;;;;8.57;6.93;;;11.40;1.00;;;;;;6154917;23;20484;-84
2024/01/26 03:03:10;;;;;;;8.90;6.73;;;11.40;1.00;;;;;;6156729;23;20198;-83
2024/01/26 03:05:35;;;;;;;9.60;6.03;;;11.40;1.00;;;;;;6157001;23;20171;-84
2024/01/26 03:08:01;;;;;;;8.57;6.33;;;11.40;1.00;;;;;;6155655;23;20159;-84
2024/01/26 03:10:27;;;;;;;10.77;6.40;;;11.40;1.00;;;;;;6156089;23;20176;-85
2024/01/26 03:12:52;;;;;;;9.37;7.17;;;11.40;1.00;;;;;;6158194;23;20216;-84
2024/01/26 03:15:18;;;;;;;6.57;5.33;;;11.40;1.00;;;;;;6156104;23;20171;-84
2024/01/26 03:17:43;;;;;;;8.00;6.00;;;11.40;1.00;;;;;;6158219;23;20152;-84
2024/01/26 03:20:09;;;;;;;9.70;6.00;;;11.40;1.00;;;;;;6156299;23;20163;-85
2024/01/26 03:22:35;;;;;;;8.67;6.57;;;11.40;1.00;;;;;;6156306;23;20166;-84
2024/01/26 03:25:01;;;;;;;6.80;5.27;;;11.50;1.00;;;;;;6156074;23;20752;-84
2024/01/26 03:27:27;;;;;;;10.00;5.50;;;11.50;1.00;;;;;;6156225;23;20175;-83
2024/01/26 03:29:53;;;;;;;6.07;4.93;;;11.50;1.00;;;;;;6158189;23;20415;-84
2024/01/26 03:32:19;;;;;;;6.67;5.37;;;11.50;1.00;;;;;;6155872;23;20395;-84
2024/01/26 03:34:44;;;;;;;5.97;4.60;;;11.50;1.00;;;;;;6157378;23;20179;-84
2024/01/26 03:37:10;;;;;;;10.30;5.43;;;11.50;1.00;;;;;;6158711;23;20478;-84
2024/01/26 03:39:36;;;;;;;5.30;4.10;;;11.50;1.00;;;;;;6159071;23;20156;-84
2024/01/26 03:42:01;;;;;;;5.93;4.80;;;11.50;1.00;;;;;;6158266;23;20151;-84
2024/01/26 03:44:27;;;;;;;8.80;5.00;;;11.50;1.00;;;;;;6157429;23;20179;-84
2024/01/26 03:46:53;;;;;;;4.90;4.17;;;11.50;1.00;;;;;;6157729;23;20156;-84
2024/01/26 03:49:18;;;;;;;4.50;4.10;;;11.50;1.00;;;;;;6157654;23;20665;-85
2024/01/26 03:51:44;;;;;;;4.50;3.70;;;11.50;1.00;;;;;;6157585;23;20764;-84
2024/01/26 03:54:09;;;;;;;6.33;3.20;;;11.50;1.00;;;;;;6156306;23;20760;-84
2024/01/26 03:56:35;;;;;;;5.03;3.30;;;11.60;1.00;;;;;;6157346;23;20155;-84
2024/01/26 03:59:00;;;;;;;6.10;2.90;;;11.60;1.00;;;;;;6160106;23;20222;-85
2024/01/26 04:01:26;;;;;;;3.40;2.60;;;11.60;1.00;;;;;;6159550;23;20155;-84
2024/01/26 04:03:51;;;;;;;3.17;2.60;;;11.60;1.00;;;;;;6157100;23;20187;-84
2024/01/26 04:06:17;;;;;;;3.80;2.93;;;11.60;1.00;;;;;;6158220;23;20151;-84
2024/01/26 04:08:42;;;;;;;3.60;2.70;;;11.60;1.00;;;;;;6157619;23;20179;-84
2024/01/26 04:11:08;;;;;;;4.83;3.23;;;11.60;1.00;;;;;;6159299;23;20152;-84
2024/01/26 04:13:33;;;;;;;3.30;2.83;;;11.50;1.00;;;;;;6159406;23;20172;-85
2024/01/26 04:15:59;;;;;;;2.47;2.23;;;11.60;1.00;;;;;;6161191;23;20546;-85
2024/01/26 04:18:24;;;;;;;3.77;2.70;;;11.60;1.00;;;;;;6161251;23;20162;-85
2024/01/26 04:20:51;;;;;;;3.20;2.50;;;11.60;1.00;;;;;;6162909;23;20271;-85
2024/01/26 04:23:16;;;;;;;3.50;2.90;;;11.60;1.00;;;;;;6161584;23;20170;-85
2024/01/26 04:25:42;;;;;;;4.43;2.50;;;11.60;1.00;;;;;;6163373;23;20457;-84
2024/01/26 04:28:08;;;;;;;3.33;2.93;;;11.70;1.00;;;;;;6163558;23;20167;-85
2024/01/26 04:30:34;;;;;;;4.60;2.70;;;11.70;1.00;;;;;;6160735;23;20183;-85
2024/01/26 04:33:00;;;;;;;6.10;3.30;;;11.70;1.00;;;;;;6157974;23;20589;-84
2024/01/26 04:35:26;;;;;;;3.97;3.00;;;11.70;1.00;;;;;;6161618;23;20395;-84
2024/01/26 04:37:52;;;;;;;3.73;3.20;;;11.70;1.00;;;;;;6160898;23;20151;-85
2024/01/26 04:40:18;;;;;;;3.13;2.83;;;11.70;1.00;;;;;;6161893;23;20158;-85
2024/01/26 04:42:43;;;;;;;4.53;3.20;;;11.70;1.00;;;;;;6161210;23;20553;-85
2024/01/26 04:45:09;;;;;;;4.30;3.10;;;11.70;1.00;;;;;;6161089;23;20415;-85
2024/01/26 04:47:35;;;;;;;6.10;3.60;;;11.70;1.00;;;;;;6160998;23;20162;-85
2024/01/26 04:50:00;;;;;;;4.50;3.33;;;11.70;1.00;;;;;;6162277;23;20614;-84
2024/01/26 04:52:26;;;;;;;4.80;3.13;;;11.70;1.00;;;;;;6162751;23;20151;-84
2024/01/26 04:54:52;;;;;;;4.40;3.30;;;11.70;1.00;;;;;;6163669;23;20178;-84
2024/01/26 04:57:18;;;;;;;4.07;3.67;;;11.70;1.00;;;;;;6161527;23;20159;-85
2024/01/26 04:59:43;;;;;;;4.37;3.57;;;11.70;1.00;;;;;;6162984;23;20159;-84
2024/01/26 05:02:09;;;;;;;6.77;4.00;;;11.70;1.00;;;;;;6164037;23;20203;-85
2024/01/26 05:04:34;;;;;;;4.03;3.50;;;11.70;1.00;;;;;;6165416;23;20182;-84
2024/01/26 05:07:00;;;;;;;4.60;2.97;;;11.70;1.00;;;;;;6156312;23;20159;-83
2024/01/26 05:09:25;;;;;;;6.97;4.07;;;11.70;1.00;;;;;;6156698;23;20261;-84
2024/01/26 05:11:51;;;;;;;4.47;3.67;;;11.60;1.00;;;;;;6155126;23;20235;-84
2024/01/26 05:14:17;;;;;;;4.00;3.60;;;11.60;1.00;;;;;;6157309;23;20167;-84
2024/01/26 05:16:43;;;;;;;4.87;3.40;;;11.60;1.00;;;;;;6156407;23;20375;-84
2024/01/26 05:19:09;;;;;;;5.97;4.23;;;11.60;1.00;;;;;;6155611;23;20386;-85
2024/01/26 05:21:34;;;;;;;5.37;4.20;;;11.50;1.00;;;;;;6156000;23;20197;-84
2024/01/26 05:24:00;;;;;;;8.77;5.67;;;11.50;1.00;;;;;;6157292;23;20532;-84
2024/01/26 05:26:25;;;;;;;5.60;3.77;;;11.40;1.00;;;;;;6156668;23;20156;-84
2024/01/26 05:28:51;;;;;;;8.30;4.17;;;11.40;1.00;;;;;;6157041;23;20198;-82
2024/01/26 05:31:16;;;;;;;7.00;4.93;;;11.40;1.00;;;;;;6155531;23;20183;-83
2024/01/26 05:33:43;;;;;;;8.50;4.30;;;11.30;1.00;;;;;;6156345;23;20199;-84
2024/01/26 05:36:08;;;;;;;6.93;4.20;;;11.30;1.00;;;;;;6155471;23;20375;-83
2024/01/26 05:38:34;;;;;;;23.70;9.50;;;11.30;1.00;;;;;;6157337;23;20162;-83
2024/01/26 05:40:59;;;;;;;5.07;4.13;;;11.20;1.00;;;;;;6157311;23;20231;-84
2024/01/26 05:43:25;;;;;;;7.70;4.70;;;11.20;1.00;;;;;;6157831;23;20460;-84
2024/01/26 05:45:50;;;;;;;5.67;3.67;;;11.20;1.00;;;;;;6157559;23;20210;-84
2024/01/26 05:48:16;;;;;;;5.53;3.93;;;11.20;1.00;;;;;;6155645;23;20152;-84
2024/01/26 05:50:42;;;;;;;7.80;4.73;;;11.20;1.00;;;;;;6154935;23;20160;-83
2024/01/26 05:53:07;;;;;;;4.83;4.13;;;11.20;1.00;;;;;;6155154;23;20503;-83
2024/01/26 05:55:33;;;;;;;4.90;3.97;;;11.10;1.00;;;;;;6156920;23;20172;-83
2024/01/26 05:57:58;;;;;;;6.60;4.90;;;11.10;1.00;;;;;;6158118;23;20227;-84
2024/01/26 06:00:24;;;;;;;5.47;4.23;;;11.10;1.00;;;;;;6158650;23;20166;-84
2024/01/26 06:02:49;;;;;;;5.60;4.30;;;11.10;1.00;;;;;;6157735;23;20162;-84
2024/01/26 06:05:15;;;;;;;7.93;4.63;;;11.10;1.00;;;;;;6157879;23;20254;-84
2024/01/26 06:07:40;;;;;;;6.23;3.67;;;11.20;1.00;;;;;;6158423;23;20206;-83
2024/01/26 06:10:07;;;;;;;4.80;3.53;;;11.20;1.00;;;;;;6158216;23;20674;-82
2024/01/26 06:12:32;;;;;;;4.53;3.53;;;11.20;1.00;;;;;;6158583;23;20170;-83
2024/01/26 06:14:58;;;;;;;4.40;3.30;;;11.30;1.00;;;;;;6156706;23;20480;-83
2024/01/26 06:17:23;;;;;;;6.20;3.73;;;11.30;1.00;;;;;;6158328;23;20147;-84
2024/01/26 06:19:49;;;;;;;4.43;2.97;;;11.40;1.00;;;;;;6155801;23;20215;-84
2024/01/26 06:22:14;;;;;;;6.57;3.43;;;11.40;1.00;;;;;;6158460;23;20628;-84
2024/01/26 06:24:40;;;;;;;3.37;2.87;;;11.40;1.00;;;;;;6156736;23;20195;-83
2024/01/26 06:27:05;;;;;;;3.93;2.93;;;11.50;1.00;;;;;;6156716;23;20254;-83
2024/01/26 06:29:31;;;;;;;4.63;3.20;;;11.50;1.00;;;;;;6157740;23;20187;-84
2024/01/26 06:31:59;;;;;;;3.93;2.87;;;11.50;1.00;;;;;;6157003;23;20155;-83
2024/01/26 06:34:25;;;;;;;5.73;3.27;;;11.60;1.00;;;;;;6158504;23;20214;-84
2024/01/26 06:36:51;;;;;;;3.87;3.03;;;11.60;1.00;;;;;;6158500;23;20375;-84
2024/01/26 06:39:17;;;;;;;4.93;3.23;;;11.60;1.00;;;;;;6158840;23;20779;-85
2024/01/26 06:41:42;;;;;;;4.30;2.90;;;11.70;1.00;;;;;;6159217;23;20679;-84
2024/01/26 06:44:08;;;;;;;3.93;3.10;;;11.70;1.00;;;;;;6159978;23;20175;-84
2024/01/26 06:46:33;;;;;;;7.73;2.90;;;11.70;1.00;;;;;;6158352;23;20238;-84
2024/01/26 06:49:01;;;;;;;5.83;2.90;;;11.70;1.00;;;;;;6155971;23;20199;-82
2024/01/26 06:51:27;;;;;;;4.90;3.03;;;11.70;1.00;;;;;;6161467;23;20148;-82
2024/01/26 06:53:53;;;;;;;3.40;2.57;;;11.60;1.00;;;;;;6162146;23;20687;-82
2024/01/26 06:56:18;;;;;;;3.27;2.30;;;11.70;1.00;;;;;;6160118;23;20600;-80
2024/01/26 06:58:45;;;;;;;4.30;3.00;;;11.70;1.00;;;;;;6160587;23;20670;-82
2024/01/26 07:01:11;;;;;;;5.10;2.77;;;11.70;1.00;;;;;;6161071;23;20550;-82
2024/01/26 07:03:36;;;;;;;4.00;3.23;;;11.70;1.00;;;;;;6159421;23;20398;-82
2024/01/26 07:06:02;;;;;;;3.60;3.10;;;11.70;1.00;;;;;;6158788;23;20183;-81
2024/01/26 07:08:28;;;;;;;4.77;2.93;;;11.70;1.00;;;;;;6159412;23;20203;-82
2024/01/26 07:10:53;;;;;;;4.80;3.63;;;11.70;1.00;;;;;;6158472;23;20174;-82
2024/01/26 07:13:19;;;;;;;20.33;4.97;;;11.70;1.00;;;;;;6160183;23;20222;-82
2024/01/26 07:15:44;;;;;;;5.87;4.10;;;11.70;1.00;;;;;;6159961;23;20147;-81
2024/01/26 07:18:10;;;;;;;7.60;4.90;;;11.60;1.00;;;;;;6158778;23;20710;-80
2024/01/26 07:20:35;;;;;;;6.53;4.10;;;11.60;1.00;;;;;;6158954;23;20156;-80
2024/01/26 07:23:01;;;;;;;9.73;4.60;;;11.70;1.00;;;;;;6161532;23;20162;-81
2024/01/26 07:25:27;;;;;;;6.00;4.40;;;11.70;1.00;;;;;;6158726;23;20160;-81
2024/01/26 07:27:52;;;;;;;6.70;4.70;;;11.80;1.00;;;;;;6160884;23;20249;-80
2024/01/26 07:30:18;;;;;;;7.00;4.97;;;11.80;1.00;;;;;;6159800;23;20175;-79
2024/01/26 07:32:44;;;;;;;7.47;3.97;;;11.80;1.00;;;;;;6159093;23;20156;-80
2024/01/26 07:35:10;;;;;;;6.50;4.77;;;11.80;3.10;;;;;;6153532;23;20382;-80
2024/01/26 07:37:36;;;;;;;10.33;5.30;;;11.80;8.30;;;;;;6157135;23;20398;-80
2024/01/26 07:40:04;;;;;;;7.00;4.83;;;11.80;16.70;;;;;;6156322;23;20183;-81
2024/01/26 07:42:30;;;;;;;9.77;5.10;;;11.80;22.40;;;;;;6157764;23;20152;-80
2024/01/26 07:44:56;;;;;;;8.37;5.00;;;11.70;27.80;;;;;;6156886;23;20477;-81
2024/01/26 07:47:22;;;;;;;7.73;4.90;;;11.70;31.70;;;;;;6156175;23;20481;-80
2024/01/26 07:49:48;;;;;;;8.73;5.70;;;11.70;35.30;;;;;;6158206;23;20159;-80
2024/01/26 07:52:14;;;;;;;8.60;5.23;;;11.70;37.60;;;;;;6159256;23;20383;-81
2024/01/26 07:54:39;;;;;;;8.70;5.40;;;11.70;42.20;;;;;;6157440;23;20390;-80
2024/01/26 07:57:05;;;;;;;8.80;5.57;;;11.70;46.90;;;;;;6157481;23;20383;-81
2024/01/26 07:59:31;;;;;;;8.23;4.80;;;11.70;50.50;;;;;;6157244;23;20207;-80
2024/01/26 08:01:56;;;;;;;9.13;5.10;;;11.70;53.30;;;;;;6157138;23;20194;-80
2024/01/26 08:04:21;;;;;;;5.90;4.00;;;11.70;55.20;;;;;;6158433;23;20152;-80
2024/01/26 08:06:47;;;;;;;6.80;5.13;;;11.70;56.30;;;;;;6157370;23;20163;-80
2024/01/26 08:09:13;;;;;;;6.03;4.70;;;11.70;57.50;;;;;;6158333;23;20179;-79
2024/01/26 08:11:38;;;;;;;8.60;4.70;;;11.70;54.20;;;;;;6159184;23;20159;-81
2024/01/26 08:14:04;;;;;;;9.20;5.07;;;11.70;52.90;;;;;;6159278;23;20151;-80
2024/01/26 08:16:29;;;;;;;5.90;4.23;;;11.70;52.40;;;;;;6156444;23;20156;-81
2024/01/26 08:18:55;;;;;;;7.03;4.50;;;11.70;54.80;;;;;;6158043;23;20183;-80
2024/01/26 08:21:21;;;;;;;6.03;4.30;;;11.70;54.30;;;;;;6160971;23;20159;-80
2024/01/26 08:23:47;;;;;;;5.13;4.20;;;11.70;55.70;;;;;;6161530;23;20218;-81
2024/01/26 08:26:13;;;;;;;6.17;4.50;;;11.70;55.60;;;;;;6158058;23;20223;-80
2024/01/26 08:28:38;;;;;;;5.57;3.90;;;11.80;58.40;;;;;;6161044;23;20405;-81
2024/01/26 08:31:05;;;;;;;5.43;3.70;;;11.80;56.10;;;;;;6157716;23;20426;-81
2024/01/26 08:33:30;;;;;;;9.00;4.03;;;11.90;54.00;;;;;;6160865;23;20166;-81
2024/01/26 08:35:56;;;;;;;5.53;3.70;;;11.80;48.60;;;;;;6158480;23;20387;-80
2024/01/26 08:38:21;;;;;;;4.47;3.50;;;11.90;43.10;;;;;;6157773;23;20183;-80
2024/01/26 08:40:47;;;;;;;4.83;3.20;;;11.90;40.40;;;;;;6160111;23;20160;-80
2024/01/26 08:43:12;;;;;;;3.83;2.90;;;11.90;32.00;;;;;;6159545;23;20179;-81
2024/01/26 08:45:38;;;;;;;4.40;2.97;;;12.00;27.10;;;;;;6159635;23;20283;-79
2024/01/26 08:48:04;;;;;;;3.00;2.70;;;12.00;22.80;;;;;;6155145;23;20198;-80
2024/01/26 08:50:30;;;;;;;2.67;2.43;;;12.00;22.50;;;;;;6157482;23;20156;-81
2024/01/26 08:52:55;;;;;;;3.10;2.80;;;12.00;21.50;;;;;;6158909;23;20712;-81
2024/01/26 08:55:21;;;;;;;3.80;3.20;;;12.00;21.00;;;;;;6158856;23;20155;-81
2024/01/26 08:57:48;;;;;;;3.87;3.07;;;12.00;20.40;;;;;;6158442;23;20175;-81
2024/01/26 09:00:15;;;;;;;4.67;2.90;;;12.00;23.50;;;;;;6158796;23;20186;-82
2024/01/26 09:02:40;;;;;;;4.13;3.00;;;12.00;25.60;;;;;;6158273;23;20789;-81
2024/01/26 09:05:07;;;;;;;4.17;2.90;;;12.00;27.90;;;;;;6158531;23;20459;-81
2024/01/26 09:07:32;;;;;;;5.57;3.30;;;12.00;28.90;;;;;;6151922;23;20180;-81
2024/01/26 09:09:58;;;;;;;3.90;3.50;;;12.00;33.30;;;;;;6154892;23;20921;-79
2024/01/26 09:12:23;;;;;;;4.70;4.30;;;12.00;37.40;;;;;;6155988;23;20165;-80
2024/01/26 09:14:49;;;;;;;4.40;3.27;;;12.00;40.70;;;;;;6155498;23;20156;-79
2024/01/26 09:17:14;;;;;;;6.03;3.67;;;12.00;46.60;;;;;;6147044;23;20166;-79
2024/01/26 09:19:40;;;;;;;5.80;3.60;;;12.00;48.70;;;;;;6150928;23;20184;-82
2024/01/26 09:22:07;;;;;;;6.07;4.50;;;12.10;53.40;;;;;;6154212;23;20699;-80
2024/01/26 09:24:32;;;;;;;7.47;4.27;;;12.10;51.70;;;;;;6153963;23;20155;-79
2024/01/26 09:26:58;;;;;;;5.80;3.90;;;12.10;48.20;;;;;;6156395;23;20382;-81
2024/01/26 09:29:26;;;;;;;6.40;3.93;;;12.20;45.70;;;;;;6156166;23;20187;-80
2024/01/26 09:31:54;;;;;;;4.93;3.90;;;12.30;41.90;;;;;;6157581;23;20498;-80
2024/01/26 09:34:19;;;;;;;6.77;3.80;;;12.30;39.50;;;;;;6156242;23;20386;-80
2024/01/26 09:36:45;;;;;;;4.37;3.67;;;12.30;31.80;;;;;;6154890;23;20906;-80
2024/01/26 09:39:10;;;;;;;4.80;3.77;;;12.40;30.60;;;;;;6155757;23;20187;-78
2024/01/26 09:41:36;;;;;;;4.70;3.80;;;12.40;34.10;;;;;;6156808;23;20599;-81
2024/01/26 09:44:02;;;;;;;4.70;4.07;;;12.40;35.90;;;;;;6155666;23;20483;-79
2024/01/26 09:46:30;;;;;;;6.43;4.07;;;12.40;36.80;;;;;;6154714;23;20183;-79
2024/01/26 09:48:57;;;;;;;4.60;3.70;;;12.50;39.00;;;;;;6155640;23;20414;-79
2024/01/26 09:51:25;;;;;;;4.90;4.40;;;12.50;32.90;;;;;;6154450;23;20379;-81
2024/01/26 09:53:57;;;;;;;4.57;3.90;;;12.60;28.30;;;;;;6156876;23;20391;-82
2024/01/26 09:56:23;;;;;;;4.83;4.33;;;12.70;21.00;;;;;;6157914;23;20362;-81
2024/01/26 09:58:48;;;;;;;5.27;4.03;;;12.60;20.40;;;;;;6159022;23;20428;-80
2024/01/26 10:01:19;;;;;;;4.60;4.07;;;12.50;27.20;;;;;;6160403;23;20415;-81
2024/01/26 10:03:45;;;;;;;6.20;4.57;;;12.40;40.30;;;;;;6159563;23;20139;-82
2024/01/26 10:06:10;;;;;;;7.73;4.60;;;12.40;47.80;;;;;;6160656;23;20375;-80
2024/01/26 10:08:40;;;;;;;5.60;5.00;;;12.40;51.10;;;;;;6156917;23;20230;-82
2024/01/26 10:11:06;;;;;;;4.97;4.47;;;12.30;55.40;;;;;;6160305;23;20188;-80
2024/01/26 10:13:32;;;;;;;5.90;5.30;;;12.30;57.20;;;;;;6160841;23;20383;-81
2024/01/26 10:16:08;;;;;;;5.70;4.70;;;12.30;61.60;;;;;;6159424;23;20171;-80
2024/01/26 10:18:43;;;;;;;6.70;4.60;;;12.30;61.40;;;;;;6160731;23;20387;-81
2024/01/26 10:21:09;;;;;;;5.30;4.80;;;12.40;62.80;;;;;;6160082;23;20743;-80
2024/01/26 10:23:35;;;;;;;9.10;5.60;;;12.40;58.00;;;;;;6161093;23;20416;-81
2024/01/26 10:26:01;;;;;;;6.90;5.40;;;12.40;51.20;;;;;;6160364;23;20391;-81
2024/01/26 10:28:26;;;;;;;6.87;4.60;;;12.50;47.80;;;;;;6160167;23;20743;-81
2024/01/26 10:30:52;;;;;;;6.50;5.10;;;12.50;44.80;;;;;;6162352;23;20156;-80
2024/01/26 10:33:20;;;;;;;7.10;5.10;;;12.60;38.80;;;;;;6162237;23;20163;-80
2024/01/26 10:35:48;;;;;;;8.97;4.97;;;12.50;32.10;;;;;;6160572;23;20235;-80
2024/01/26 10:38:14;;;;;;;6.47;5.20;;;12.50;31.80;;;;;;6159132;23;20395;-80
2024/01/26 10:40:44;;;;;;;6.10;4.43;;;12.50;33.80;;;;;;6158078;23;21008;-80
2024/01/26 10:43:10;;;;;;;5.70;3.10;;;12.40;30.00;;;;;;6156454;23;20391;-80
2024/01/26 10:45:37;;;;;;;6.53;2.83;;;12.40;10.60;;;;;;6157895;23;20387;-80
2024/01/26 10:48:05;;;;;;;2.97;2.00;;;12.30;1.00;;;;;;6157357;23;20505;-80
2024/01/26 10:50:31;;;;;;;5.03;1.90;;;12.30;1.00;;;;;;6156834;23;20402;-81
2024/01/26 10:52:57;;;;;;;4.23;2.17;;;12.20;1.00;;;;;;6157413;23;20387;-82
2024/01/26 10:55:24;;;;;;;4.33;1.77;;;12.10;1.00;;;;;;6154195;23;21077;-81
2024/01/26 10:57:49;;;;;;;10.90;2.03;;;12.10;99.90;;;;;;6153090;23;20822;-82
2024/01/26 11:03:34;;;;;;;11.32;2.40;;;11.20;1.00;;;;;;5055778;28;20454;-82
2024/01/26 11:05:59;;;;;;;3.83;2.40;;;12.60;99.90;;;;;;5054400;28;20182;-82
2024/01/26 11:08:27;;;;;;;6.10;2.10;;;12.80;99.90;;;;;;5022606;28;20261;-82
2024/01/26 11:10:55;;;;;;;5.33;1.67;;;13.10;99.90;;;;;;5006087;28;20212;-82
2024/01/26 11:13:23;;;;;;;6.27;2.13;;;13.30;99.90;;;;;;4993544;28;20431;-83
2024/01/26 11:15:49;;;;;;;8.33;2.30;;;13.00;46.00;;;;;;5003872;28;20438;-84
2024/01/26 11:18:25;;;;;;;6.63;2.27;;;12.90;1.00;;;;;;5007120;28;20450;-82
2024/01/26 11:20:51;;;;;;;8.67;2.13;;;12.90;1.00;;;;;;5007285;28;20465;-83
2024/01/26 11:23:16;;;;;;;7.40;1.97;;;13.30;1.00;;;;;;4999754;28;20470;-81
2024/01/26 11:25:50;;;;;;;13.93;2.93;;;13.80;99.90;;;;;;5009593;28;21890;-83
2024/01/26 11:28:18;;;;;;;4.23;1.80;;;14.00;1.00;;;;;;5004180;28;20287;-82
2024/01/26 11:30:54;;;;;;;5.23;2.10;;;14.80;1.00;;;;;;5007165;28;20445;-84
2024/01/26 11:33:23;;;;;;;6.30;1.47;;;14.80;99.90;;;;;;5005148;28;20580;-85
2024/01/26 11:36:01;;;;;;;6.63;1.83;;;15.40;99.90;;;;;;5007386;28;20439;-83
2024/01/26 11:38:27;;;;;;;8.53;2.27;;;16.00;1.00;;;;;;5007060;28;21049;-83
2024/01/26 11:40:57;;;;;;;5.20;2.10;;;16.90;1.00;;;;;;5011257;28;20450;-85
2024/01/26 11:43:25;;;;;;;7.20;2.13;;;16.70;1.00;;;;;;5010112;28;20520;-84
2024/01/26 11:45:50;;;;;;;7.67;2.33;;;17.20;1.00;;;;;;5013418;28;20457;-84
2024/01/26 11:48:16;;;;;;;6.83;1.70;;;18.70;1.00;;;;;;4999452;28;20461;-85
2024/01/26 11:50:43;;;;;;;6.97;2.10;;;19.40;1.00;;;;;;5009586;28;20175;-85
2024/01/26 11:53:10;;;;;;;8.50;2.07;;;19.70;1.00;;;;;;5015739;28;20198;-85
2024/01/26 11:55:38;;;;;;;5.87;1.87;;;19.70;99.90;;;;;;5006330;28;20438;-84
2024/01/26 11:58:04;;;;;;;3.97;1.70;;;19.70;99.90;;;;;;5010181;28;20887;-84
2024/01/26 12:00:30;;;;;;;9.07;1.57;;;19.70;99.90;;;;;;5012480;28;20450;-83
2024/01/26 12:02:56;;;;;;;7.43;2.03;;;19.60;99.90;;;;;;5013917;28;20472;-83
2024/01/26 12:05:22;;;;;;;5.43;1.57;;;19.60;99.90;;;;;;5011047;28;20709;-83
2024/01/26 12:07:48;;;;;;;6.93;1.50;;;19.70;99.90;;;;;;5007313;28;20544;-83
2024/01/26 12:10:14;;;;;;;5.63;1.77;;;19.70;99.90;;;;;;5001443;28;20463;-83
2024/01/26 12:12:41;;;;;;;4.87;1.37;;;19.40;99.90;;;;;;4998758;28;20454;-82
2024/01/26 12:15:10;;;;;;;8.67;1.20;;;18.90;99.90;;;;;;4990851;28;20439;-83
2024/01/26 12:17:36;;;;;;;4.70;1.27;;;18.70;99.90;;;;;;4994367;28;20458;-83
2024/01/26 12:20:05;;;;;;;5.10;1.57;;;18.40;99.90;;;;;;4989000;28;22469;-84
2024/01/26 12:22:32;;;;;;;4.53;1.87;;;18.40;99.90;;;;;;4988941;28;20205;-82
2024/01/26 12:25:02;;;;;;;6.80;1.70;;;18.40;99.90;;;;;;4993282;28;20877;-84
2024/01/26 12:27:28;;;;;;;6.73;1.70;;;18.50;99.90;;;;;;4998129;28;20451;-84
2024/01/26 12:29:53;;;;;;;2.70;1.07;;;18.30;99.90;;;;;;4998067;28;20433;-82
2024/01/26 12:32:19;;;;;;;6.77;2.10;;;17.70;99.90;;;;;;4990478;28;20184;-82
2024/01/26 12:34:44;;;;;;;4.23;1.37;;;17.30;99.90;;;;;;4996813;28;20188;-80
2024/01/26 12:37:11;;;;;;;6.50;1.27;;;17.40;99.90;;;;;;4993040;28;20248;-83
2024/01/26 12:39:37;;;;;;;9.53;1.43;;;17.60;99.90;;;;;;4994994;28;20265;-82
2024/01/26 12:42:03;;;;;;;5.63;1.60;;;17.30;99.90;;;;;;4994227;28;20436;-85
2024/01/26 12:44:30;;;;;;;4.80;2.20;;;17.20;99.90;;;;;;4992757;28;20191;-82
2024/01/26 12:46:59;;;;;;;14.77;1.67;;;17.40;99.90;;;;;;4995381;28;20940;-84